Time;durP1;ratioP1;P1;durP2;ratioP2;P2;SDS_P1;SDS_P2;PMS_P1;PMS_P2;Temp;Humidity;BMP_temperature;BMP_pressure;BME280_temperature;BME280_humidity;BME280_pressure;Samples;Min_cycle;Max_cycle;Signal;HPM_P1;HPM_P2
2022/08/07 00:01:30;;;;;;;1.97;1.63;;;18.80;1.00;;;;;;5086307;28;20680;-53
2022/08/07 00:03:56;;;;;;;3.10;1.90;;;18.80;1.00;;;;;;5088960;28;20769;-52
2022/08/07 00:06:22;;;;;;;2.10;1.90;;;18.90;1.00;;;;;;5087976;28;20198;-54
2022/08/07 00:08:47;;;;;;;2.23;2.03;;;18.80;1.00;;;;;;5072181;28;20206;-55
2022/08/07 00:11:13;;;;;;;1.80;1.70;;;18.80;1.00;;;;;;5089512;28;20182;-53
2022/08/07 00:13:41;;;;;;;3.23;1.90;;;18.70;1.00;;;;;;5089662;28;20195;-55
2022/08/07 00:16:06;;;;;;;1.77;1.63;;;18.60;1.00;;;;;;5090342;28;20187;-57
2022/08/07 00:18:32;;;;;;;1.63;1.43;;;18.70;1.00;;;;;;5087996;28;20452;-57
2022/08/07 00:21:01;;;;;;;1.50;1.40;;;18.60;1.00;;;;;;5089255;28;20183;-53
2022/08/07 00:23:27;;;;;;;1.73;1.43;;;18.60;1.00;;;;;;5088664;28;20445;-55
2022/08/07 00:25:53;;;;;;;2.83;1.40;;;18.50;1.00;;;;;;5090108;28;20436;-53
2022/08/07 00:28:19;;;;;;;1.67;1.27;;;18.30;1.00;;;;;;5089063;28;20472;-54
2022/08/07 00:30:45;;;;;;;1.23;1.13;;;18.30;1.00;;;;;;5087486;28;20187;-55
2022/08/07 00:33:11;;;;;;;2.90;0.93;;;18.30;1.00;;;;;;5086496;28;20541;-54
2022/08/07 00:35:37;;;;;;;1.73;0.90;;;18.10;1.00;;;;;;5088664;28;20535;-54
2022/08/07 00:38:03;;;;;;;1.50;1.20;;;18.00;1.00;;;;;;5087666;28;20187;-55
2022/08/07 00:40:29;;;;;;;1.03;0.93;;;17.90;1.00;;;;;;5089529;28;20520;-55
2022/08/07 00:42:55;;;;;;;2.90;2.07;;;17.90;1.00;;;;;;5089038;28;20545;-54
2022/08/07 00:45:21;;;;;;;2.07;1.63;;;17.90;1.00;;;;;;5086917;28;20449;-53
2022/08/07 00:47:48;;;;;;;1.90;1.60;;;17.90;1.00;;;;;;5089753;28;20457;-53
2022/08/07 00:50:14;;;;;;;1.43;0.90;;;17.80;1.00;;;;;;5086353;28;20441;-53
2022/08/07 00:52:40;;;;;;;1.30;1.20;;;17.80;1.00;;;;;;5085868;28;20459;-54
2022/08/07 00:55:06;;;;;;;2.03;1.10;;;17.80;1.00;;;;;;5088859;28;20437;-56
2022/08/07 00:57:32;;;;;;;1.37;1.27;;;17.80;1.00;;;;;;5088916;28;20202;-56
2022/08/07 00:59:57;;;;;;;1.23;1.13;;;17.90;1.00;;;;;;5088918;28;20448;-54
2022/08/07 01:02:24;;;;;;;1.67;1.40;;;17.90;1.00;;;;;;5088360;28;20189;-55
2022/08/07 01:04:50;;;;;;;1.40;1.30;;;17.80;1.00;;;;;;5083639;28;20198;-53
2022/08/07 01:07:17;;;;;;;1.67;1.23;;;17.60;1.00;;;;;;5085707;28;20437;-54
2022/08/07 01:09:43;;;;;;;1.00;0.90;;;17.60;1.00;;;;;;5086997;28;20233;-55
2022/08/07 01:12:09;;;;;;;1.10;1.00;;;17.50;1.00;;;;;;5088697;28;20472;-52
2022/08/07 01:14:35;;;;;;;1.67;1.23;;;17.60;1.00;;;;;;5088642;28;20216;-55
2022/08/07 01:17:00;;;;;;;3.83;1.50;;;17.60;1.00;;;;;;5088084;28;20659;-53
2022/08/07 01:19:28;;;;;;;1.20;1.10;;;17.50;1.00;;;;;;5087698;28;20222;-54
2022/08/07 01:21:54;;;;;;;1.83;1.10;;;17.50;1.00;;;;;;5087103;28;20253;-56
2022/08/07 01:24:21;;;;;;;3.63;1.07;;;17.50;1.00;;;;;;5088086;28;20535;-54
2022/08/07 01:26:47;;;;;;;1.93;1.10;;;17.50;1.00;;;;;;5071322;28;20452;-57
2022/08/07 01:29:13;;;;;;;3.00;1.10;;;17.40;1.00;;;;;;5088483;28;20496;-54
2022/08/07 01:31:39;;;;;;;1.30;0.80;;;17.40;1.00;;;;;;5086854;28;20448;-56
2022/08/07 01:34:05;;;;;;;2.90;1.27;;;17.30;1.00;;;;;;5087328;28;20482;-54
2022/08/07 01:36:31;;;;;;;2.70;0.90;;;17.20;1.00;;;;;;5086018;28;20481;-54
2022/08/07 01:38:58;;;;;;;3.30;1.10;;;17.20;1.00;;;;;;5089420;28;20186;-54
2022/08/07 01:41:24;;;;;;;1.27;1.17;;;17.20;1.00;;;;;;5086642;28;20483;-54
2022/08/07 01:43:51;;;;;;;1.43;1.10;;;17.20;1.00;;;;;;5091045;28;20832;-54
2022/08/07 01:46:18;;;;;;;1.60;1.40;;;17.20;1.00;;;;;;5091784;28;20443;-54
2022/08/07 01:48:45;;;;;;;2.30;1.17;;;17.10;1.00;;;;;;5092301;28;20460;-56
2022/08/07 01:51:15;;;;;;;2.50;1.00;;;17.10;1.00;;;;;;5090948;28;20531;-53
2022/08/07 01:53:44;;;;;;;2.70;1.43;;;17.20;1.00;;;;;;5092454;28;20441;-55
2022/08/07 01:56:15;;;;;;;2.07;1.27;;;17.00;1.00;;;;;;5090495;28;20449;-56
2022/08/07 01:58:49;;;;;;;1.27;1.00;;;17.00;1.00;;;;;;5090332;28;21345;-54
2022/08/07 02:01:23;;;;;;;1.13;1.03;;;17.00;1.00;;;;;;5071923;28;20475;-55
2022/08/07 02:03:56;;;;;;;3.83;1.30;;;17.00;1.00;;;;;;5083163;28;20444;-55
2022/08/07 02:06:24;;;;;;;1.20;1.10;;;17.00;1.00;;;;;;5089213;28;20453;-56
2022/08/07 02:08:52;;;;;;;2.77;1.13;;;16.90;1.00;;;;;;5090445;28;20475;-56
2022/08/07 02:11:18;;;;;;;3.13;1.20;;;16.80;1.00;;;;;;5091347;28;20548;-54
2022/08/07 02:13:45;;;;;;;1.63;1.10;;;17.00;1.00;;;;;;5091463;28;20532;-54
2022/08/07 02:16:11;;;;;;;1.53;1.33;;;16.90;1.00;;;;;;5090859;28;20186;-55
2022/08/07 02:18:38;;;;;;;1.30;1.20;;;16.80;1.00;;;;;;5091087;28;20440;-55
2022/08/07 02:21:07;;;;;;;2.30;1.30;;;16.80;1.00;;;;;;5086915;28;20887;-52
2022/08/07 02:23:37;;;;;;;1.27;1.10;;;16.80;1.00;;;;;;5085229;28;20973;-55
2022/08/07 02:26:07;;;;;;;1.00;1.00;;;16.70;1.00;;;;;;5087946;28;20461;-54
2022/08/07 02:28:35;;;;;;;1.20;1.10;;;16.60;1.00;;;;;;5087900;28;20465;-52
2022/08/07 02:31:05;;;;;;;1.63;1.27;;;16.50;1.00;;;;;;5089344;28;21639;-56
2022/08/07 02:33:32;;;;;;;1.83;1.47;;;16.50;1.00;;;;;;5088703;28;20444;-54
2022/08/07 02:35:59;;;;;;;1.90;1.27;;;16.40;1.00;;;;;;5088314;28;20477;-55
2022/08/07 02:38:28;;;;;;;2.20;1.10;;;16.40;1.00;;;;;;5090190;28;20449;-53
2022/08/07 02:40:55;;;;;;;1.43;1.33;;;16.40;1.00;;;;;;5090084;28;20493;-54
2022/08/07 02:43:22;;;;;;;1.93;1.30;;;16.40;1.00;;;;;;5091647;28;20532;-56
2022/08/07 02:45:50;;;;;;;1.27;1.17;;;16.30;1.00;;;;;;5089260;28;20969;-55
2022/08/07 02:48:15;;;;;;;1.70;1.53;;;16.30;1.00;;;;;;5090853;28;20522;-56
2022/08/07 02:50:45;;;;;;;1.23;1.13;;;16.30;1.00;;;;;;5089894;28;20846;-54
2022/08/07 02:53:16;;;;;;;1.43;1.33;;;16.30;1.00;;;;;;5089705;28;20448;-55
2022/08/07 02:55:48;;;;;;;1.83;1.47;;;16.30;1.00;;;;;;5090608;28;20452;-56
2022/08/07 02:58:18;;;;;;;1.93;1.30;;;16.20;1.00;;;;;;5090712;28;20491;-55
2022/08/07 03:00:49;;;;;;;2.67;1.30;;;16.20;1.00;;;;;;5089565;28;20817;-54
2022/08/07 03:03:16;;;;;;;2.60;1.30;;;16.20;1.00;;;;;;5088006;28;20463;-54
2022/08/07 03:05:43;;;;;;;1.83;1.63;;;16.20;1.00;;;;;;5088993;28;20483;-56
2022/08/07 03:08:09;;;;;;;1.30;1.20;;;16.10;1.00;;;;;;5088965;28;20490;-56
2022/08/07 03:10:37;;;;;;;1.87;1.40;;;16.10;1.00;;;;;;5087659;28;20440;-56
2022/08/07 03:13:03;;;;;;;1.70;1.33;;;15.90;1.00;;;;;;5090846;28;20445;-55
2022/08/07 03:15:29;;;;;;;1.50;1.40;;;15.90;1.00;;;;;;5090360;28;20429;-54
2022/08/07 03:17:55;;;;;;;2.00;1.37;;;16.00;1.00;;;;;;5090392;28;20463;-54
2022/08/07 03:20:22;;;;;;;1.93;1.73;;;16.00;1.00;;;;;;5090968;28;20538;-55
2022/08/07 03:22:49;;;;;;;1.63;1.53;;;16.10;1.00;;;;;;5088099;28;20439;-55
2022/08/07 03:25:16;;;;;;;2.53;1.43;;;16.00;1.00;;;;;;5091439;28;20440;-56
2022/08/07 03:27:44;;;;;;;1.67;1.50;;;16.00;1.00;;;;;;5087738;28;20468;-55
2022/08/07 03:30:11;;;;;;;1.33;1.23;;;15.80;1.00;;;;;;5083280;28;20445;-55
2022/08/07 03:32:39;;;;;;;1.73;1.10;;;15.80;1.00;;;;;;5086254;28;20456;-53
2022/08/07 03:35:11;;;;;;;1.40;1.30;;;15.70;1.00;;;;;;5070651;28;20455;-57
2022/08/07 03:37:38;;;;;;;1.30;1.20;;;15.70;1.00;;;;;;5070675;28;20468;-55
2022/08/07 03:40:06;;;;;;;3.00;1.53;;;15.70;1.00;;;;;;5087780;28;20523;-53
2022/08/07 03:42:34;;;;;;;1.67;1.57;;;15.70;1.00;;;;;;5087882;28;20460;-55
2022/08/07 03:45:00;;;;;;;4.47;1.60;;;15.60;1.00;;;;;;5087667;28;20456;-56
2022/08/07 03:47:27;;;;;;;1.70;1.60;;;15.60;1.00;;;;;;5087606;28;20779;-53
2022/08/07 03:49:53;;;;;;;1.50;1.40;;;15.50;1.00;;;;;;5087746;28;20448;-54
2022/08/07 03:52:22;;;;;;;1.63;1.50;;;15.60;1.00;;;;;;5089885;28;20452;-53
2022/08/07 03:54:48;;;;;;;1.13;1.03;;;15.60;1.00;;;;;;5088358;28;20988;-53
2022/08/07 03:57:15;;;;;;;1.60;1.50;;;15.60;1.00;;;;;;5088754;28;20509;-55
2022/08/07 03:59:41;;;;;;;1.37;1.27;;;15.50;1.00;;;;;;5088933;28;20348;-54
2022/08/07 04:02:07;;;;;;;8.43;1.83;;;15.60;1.00;;;;;;5086254;28;20459;-53
2022/08/07 04:04:33;;;;;;;1.97;1.37;;;15.70;1.00;;;;;;5087531;28;20480;-55
2022/08/07 04:06:59;;;;;;;4.27;1.63;;;15.60;1.00;;;;;;5087089;28;20452;-54
2022/08/07 04:09:26;;;;;;;3.00;1.83;;;15.70;1.00;;;;;;5087709;28;20483;-54
2022/08/07 04:11:53;;;;;;;1.20;1.10;;;15.60;1.00;;;;;;5089084;28;20244;-55
2022/08/07 04:14:19;;;;;;;2.07;1.40;;;15.60;1.00;;;;;;5089532;28;20448;-53
2022/08/07 04:16:47;;;;;;;2.77;1.30;;;15.70;1.00;;;;;;5088629;28;20468;-55
2022/08/07 04:19:14;;;;;;;2.13;1.50;;;15.70;1.00;;;;;;5089812;28;20459;-55
2022/08/07 04:21:39;;;;;;;1.30;1.20;;;15.70;1.00;;;;;;5089185;28;20560;-53
2022/08/07 04:24:09;;;;;;;2.17;1.30;;;15.80;1.00;;;;;;5088667;28;20570;-55
2022/08/07 04:26:36;;;;;;;4.77;1.50;;;15.80;1.00;;;;;;5088438;28;20281;-55
2022/08/07 04:29:02;;;;;;;1.03;0.90;;;15.70;1.00;;;;;;5088869;28;20500;-55
2022/08/07 04:31:28;;;;;;;1.47;1.37;;;15.80;1.00;;;;;;5085901;28;20537;-54
2022/08/07 04:33:54;;;;;;;1.13;1.00;;;15.90;1.00;;;;;;5084825;28;20494;-56
2022/08/07 04:36:20;;;;;;;1.50;1.30;;;15.90;1.00;;;;;;5088239;28;21304;-53
2022/08/07 04:38:45;;;;;;;1.57;1.23;;;16.00;1.00;;;;;;5088273;28;20193;-53
2022/08/07 04:41:11;;;;;;;4.33;1.53;;;16.00;1.00;;;;;;5086884;28;20312;-54
2022/08/07 04:43:38;;;;;;;1.90;1.50;;;15.90;1.00;;;;;;5089193;28;20201;-54
2022/08/07 04:46:06;;;;;;;1.67;1.57;;;16.00;1.00;;;;;;5088924;28;20189;-55
2022/08/07 04:48:59;;;;;;;1.30;1.20;;;16.00;1.00;;;;;;5069195;28;20475;-54
2022/08/07 04:51:40;;;;;;;1.47;1.37;;;16.10;1.00;;;;;;5087613;28;20954;-54
2022/08/07 04:54:28;;;;;;;2.20;1.60;;;16.10;1.00;;;;;;5087380;28;20445;-56
2022/08/07 04:57:14;;;;;;;1.33;1.23;;;16.20;1.00;;;;;;5087488;28;20449;-56
2022/08/07 04:59:51;;;;;;;2.40;1.57;;;16.20;1.00;;;;;;5089232;28;20436;-54
2022/08/07 05:02:39;;;;;;;2.00;1.47;;;16.30;1.00;;;;;;5084318;28;20459;-54
2022/08/07 05:05:34;;;;;;;1.50;1.23;;;16.30;1.00;;;;;;5088117;28;20445;-55
2022/08/07 05:08:10;;;;;;;2.57;1.40;;;16.40;1.00;;;;;;5085568;28;20472;-56
2022/08/07 05:10:57;;;;;;;1.80;1.27;;;16.40;1.00;;;;;;5085851;28;20444;-54
2022/08/07 05:13:38;;;;;;;1.70;1.60;;;16.50;1.00;;;;;;5088144;28;20444;-55
2022/08/07 05:16:11;;;;;;;1.57;1.33;;;16.50;1.00;;;;;;5087784;28;21569;-56
2022/08/07 05:18:44;;;;;;;1.53;1.43;;;16.50;1.00;;;;;;5091174;28;20444;-54
2022/08/07 05:21:12;;;;;;;1.80;1.70;;;16.40;1.00;;;;;;5073417;28;20455;-54
2022/08/07 05:23:49;;;;;;;1.50;1.40;;;16.50;1.00;;;;;;5091149;28;20471;-57
2022/08/07 05:26:20;;;;;;;1.40;1.30;;;16.50;1.00;;;;;;5089375;28;20507;-56
2022/08/07 05:28:50;;;;;;;2.13;1.50;;;16.70;1.00;;;;;;5090828;28;20500;-54
2022/08/07 05:31:22;;;;;;;1.80;1.70;;;16.80;1.00;;;;;;5088404;28;20451;-52
2022/08/07 05:33:49;;;;;;;1.70;1.50;;;16.90;1.00;;;;;;5091468;28;20448;-57
2022/08/07 05:36:17;;;;;;;1.80;1.70;;;17.00;1.00;;;;;;5089233;28;20487;-55
2022/08/07 05:38:44;;;;;;;1.47;1.27;;;17.20;1.00;;;;;;5088080;28;20446;-54
2022/08/07 05:41:10;;;;;;;2.67;2.00;;;17.40;1.00;;;;;;5088340;28;20579;-54
2022/08/07 05:43:38;;;;;;;1.50;1.40;;;17.50;1.00;;;;;;5089414;28;21015;-56
2022/08/07 05:46:07;;;;;;;1.57;1.40;;;17.60;1.00;;;;;;5088336;28;20497;-56
2022/08/07 05:48:33;;;;;;;1.60;1.50;;;17.70;1.00;;;;;;5090194;28;20559;-53
2022/08/07 05:51:00;;;;;;;1.37;1.23;;;17.70;1.00;;;;;;5089404;28;20894;-54
2022/08/07 05:53:26;;;;;;;1.87;1.70;;;17.90;1.00;;;;;;5090439;28;20455;-54
2022/08/07 05:55:53;;;;;;;1.73;1.63;;;17.90;1.00;;;;;;5089607;28;20452;-54
2022/08/07 05:58:22;;;;;;;2.83;1.80;;;18.00;1.00;;;;;;5090338;28;20460;-55
2022/08/07 06:00:49;;;;;;;3.60;1.60;;;18.10;1.00;;;;;;5087444;28;20543;-56
2022/08/07 06:03:17;;;;;;;1.70;1.60;;;18.10;1.00;;;;;;5089331;28;20452;-55
2022/08/07 06:05:43;;;;;;;1.87;1.77;;;18.20;1.00;;;;;;5085010;28;20967;-55
2022/08/07 06:08:09;;;;;;;1.73;1.60;;;18.20;1.00;;;;;;5085222;28;21177;-56
2022/08/07 06:10:36;;;;;;;2.13;1.40;;;18.30;1.00;;;;;;5086857;28;20452;-55
2022/08/07 06:13:02;;;;;;;2.30;1.50;;;18.30;1.00;;;;;;5090102;28;20692;-55
2022/08/07 06:15:28;;;;;;;3.60;1.57;;;18.40;1.00;;;;;;5090226;28;20833;-55
2022/08/07 06:17:55;;;;;;;2.47;1.70;;;18.40;1.00;;;;;;5090368;28;20857;-54
2022/08/07 06:20:22;;;;;;;2.10;1.47;;;18.60;1.00;;;;;;5068914;28;21056;-54
2022/08/07 06:22:49;;;;;;;2.20;1.53;;;18.70;1.00;;;;;;5089011;28;20455;-54
2022/08/07 06:25:15;;;;;;;2.80;1.50;;;18.80;1.00;;;;;;5089486;28;20448;-56
2022/08/07 06:27:40;;;;;;;2.90;1.37;;;19.00;1.00;;;;;;5088556;28;20555;-54
2022/08/07 06:30:07;;;;;;;3.03;1.80;;;19.20;1.00;;;;;;5087970;28;20491;-55
2022/08/07 06:32:32;;;;;;;2.40;1.40;;;19.40;1.00;;;;;;5071322;28;20193;-54
2022/08/07 06:35:02;;;;;;;1.53;1.43;;;19.60;1.00;;;;;;5085236;28;20441;-58
2022/08/07 06:37:27;;;;;;;2.73;1.80;;;19.60;1.00;;;;;;5086915;28;20229;-53
2022/08/07 06:39:53;;;;;;;2.63;1.60;;;19.70;1.00;;;;;;5089480;28;20535;-55
2022/08/07 06:42:36;;;;;;;2.13;1.70;;;19.80;1.00;;;;;;5088233;28;20205;-54
2022/08/07 06:45:05;;;;;;;2.13;1.50;;;19.90;1.00;;;;;;5088874;28;20187;-56
2022/08/07 06:47:31;;;;;;;1.63;1.40;;;20.00;1.00;;;;;;5088084;28;20544;-53
2022/08/07 06:49:57;;;;;;;1.60;1.50;;;20.20;1.00;;;;;;5088571;28;20437;-54
2022/08/07 06:52:26;;;;;;;1.60;1.50;;;20.40;1.00;;;;;;5086949;28;20480;-55
2022/08/07 06:54:53;;;;;;;2.40;1.30;;;20.30;1.00;;;;;;5088882;28;20287;-53
2022/08/07 06:57:20;;;;;;;2.03;1.53;;;20.40;1.00;;;;;;5089433;28;20441;-53
2022/08/07 06:59:46;;;;;;;2.80;1.27;;;20.50;1.00;;;;;;5089154;28;20498;-52
2022/08/07 07:02:20;;;;;;;3.63;1.30;;;20.60;1.00;;;;;;5088220;28;21133;-56
2022/08/07 07:04:46;;;;;;;4.57;1.70;;;20.80;1.00;;;;;;5087969;28;20498;-55
2022/08/07 07:07:13;;;;;;;1.63;1.40;;;21.10;1.00;;;;;;5087194;28;20502;-55
2022/08/07 07:09:45;;;;;;;1.90;1.50;;;21.20;1.00;;;;;;5089291;28;20510;-55
2022/08/07 07:12:23;;;;;;;3.13;2.43;;;21.20;1.00;;;;;;5071037;28;20797;-55
2022/08/07 07:14:59;;;;;;;2.00;1.57;;;21.40;1.00;;;;;;5088045;28;20618;-54
2022/08/07 07:17:45;;;;;;;2.40;1.70;;;21.60;1.00;;;;;;5088434;28;20475;-55
2022/08/07 07:20:18;;;;;;;3.23;2.70;;;21.50;1.00;;;;;;5088933;28;20444;-55
2022/08/07 07:22:45;;;;;;;2.20;2.00;;;21.70;1.00;;;;;;5083973;28;20572;-55
2022/08/07 07:25:12;;;;;;;4.67;1.80;;;21.70;1.00;;;;;;5069911;28;20576;-55
2022/08/07 07:27:45;;;;;;;2.57;1.80;;;21.70;1.00;;;;;;5087903;28;20449;-54
2022/08/07 07:30:11;;;;;;;3.80;1.87;;;22.00;1.00;;;;;;5089548;28;20448;-56
2022/08/07 07:32:40;;;;;;;3.40;2.30;;;22.20;1.00;;;;;;5086532;28;20449;-52
2022/08/07 07:35:09;;;;;;;1.77;1.60;;;22.50;1.00;;;;;;5090601;28;20435;-54
2022/08/07 07:37:37;;;;;;;2.03;1.70;;;22.70;1.00;;;;;;5068288;28;20509;-54
2022/08/07 07:40:06;;;;;;;2.33;1.90;;;22.80;1.00;;;;;;5089969;28;20502;-57
2022/08/07 07:42:33;;;;;;;2.67;1.60;;;23.00;1.00;;;;;;5088490;28;20433;-54
2022/08/07 07:45:04;;;;;;;2.07;1.40;;;23.30;1.00;;;;;;5089063;28;20440;-54
2022/08/07 07:47:31;;;;;;;2.00;1.57;;;23.20;1.00;;;;;;5085551;28;20506;-54
2022/08/07 07:49:59;;;;;;;1.70;1.50;;;23.20;1.00;;;;;;5089399;28;20452;-57
2022/08/07 07:52:26;;;;;;;2.13;1.60;;;23.30;1.00;;;;;;5088422;28;20943;-56
2022/08/07 07:54:54;;;;;;;2.63;1.77;;;23.10;1.00;;;;;;5088069;28;20448;-56
2022/08/07 07:57:24;;;;;;;3.77;1.80;;;23.10;1.00;;;;;;5088268;28;20440;-53
2022/08/07 07:59:50;;;;;;;2.47;1.70;;;23.00;1.00;;;;;;5087797;28;20530;-54
2022/08/07 08:02:18;;;;;;;2.20;1.53;;;23.00;1.00;;;;;;5086314;28;20450;-56
2022/08/07 08:04:45;;;;;;;1.93;1.50;;;23.30;1.00;;;;;;5087059;28;20539;-55
2022/08/07 08:07:12;;;;;;;1.83;1.60;;;23.60;1.00;;;;;;5087098;28;20447;-53
2022/08/07 08:09:39;;;;;;;4.00;1.50;;;23.90;1.00;;;;;;5086186;28;20992;-56
2022/08/07 08:12:06;;;;;;;2.23;1.40;;;24.10;1.00;;;;;;5088272;28;20537;-55
2022/08/07 08:14:33;;;;;;;2.20;1.40;;;24.10;1.00;;;;;;5087988;28;20437;-53
2022/08/07 08:17:00;;;;;;;8.40;1.83;;;24.20;1.00;;;;;;5088432;28;20448;-54
2022/08/07 08:19:28;;;;;;;1.73;1.30;;;23.90;1.00;;;;;;5085634;28;20448;-54
2022/08/07 08:27:35;;;;;;;2.93;1.30;;;24.90;1.00;;;;;;5086391;28;21183;-53
2022/08/07 08:30:04;;;;;;;2.43;1.10;;;25.10;1.00;;;;;;5088543;28;20459;-56
2022/08/07 08:32:32;;;;;;;3.27;1.30;;;25.00;1.00;;;;;;5086796;28;20494;-53
2022/08/07 08:35:00;;;;;;;2.80;0.93;;;25.10;1.00;;;;;;5088323;28;20961;-54
2022/08/07 08:37:28;;;;;;;2.33;1.07;;;25.40;1.00;;;;;;5086827;28;20492;-56
2022/08/07 08:39:55;;;;;;;1.50;1.03;;;25.90;1.00;;;;;;5087978;28;20452;-56
2022/08/07 08:42:37;;;;;;;2.50;1.27;;;26.10;1.00;;;;;;5089099;28;20911;-56
2022/08/07 08:45:06;;;;;;;6.33;1.30;;;26.10;1.00;;;;;;5088671;28;20463;-56
2022/08/07 08:47:54;;;;;;;1.20;0.97;;;25.90;1.00;;;;;;5085264;28;20445;-57
2022/08/07 08:50:34;;;;;;;1.67;0.90;;;26.10;1.00;;;;;;5086747;28;20706;-53
2022/08/07 08:53:31;;;;;;;1.30;1.10;;;26.40;1.00;;;;;;5069738;28;20436;-54
2022/08/07 08:56:00;;;;;;;1.30;0.80;;;26.80;1.00;;;;;;5083510;28;20456;-53
2022/08/07 08:58:44;;;;;;;2.03;1.00;;;27.00;1.00;;;;;;5087483;28;20502;-55
2022/08/07 09:01:35;;;;;;;2.33;1.10;;;27.30;1.00;;;;;;5086631;28;20802;-56
2022/08/07 09:04:23;;;;;;;1.20;0.90;;;27.70;1.00;;;;;;5084527;28;20452;-54
2022/08/07 09:07:25;;;;;;;2.40;0.97;;;27.70;1.00;;;;;;5085825;28;20471;-56
2022/08/07 09:10:18;;;;;;;1.17;1.07;;;27.50;1.00;;;;;;5087669;28;20841;-55
2022/08/07 09:13:12;;;;;;;1.83;1.00;;;27.80;1.00;;;;;;5084958;28;20532;-53
2022/08/07 09:15:53;;;;;;;1.40;0.90;;;27.90;1.00;;;;;;5068964;28;20528;-55
2022/08/07 09:18:53;;;;;;;1.33;0.60;;;28.10;1.00;;;;;;5071577;28;20478;-54
2022/08/07 09:21:56;;;;;;;3.47;1.87;;;28.40;1.00;;;;;;5087743;28;20941;-54
2022/08/07 09:24:50;;;;;;;1.03;0.70;;;28.20;1.00;;;;;;5085276;28;20440;-56
2022/08/07 09:27:41;;;;;;;2.90;0.93;;;28.00;1.00;;;;;;5049517;28;20452;-55
2022/08/07 09:30:09;;;;;;;1.30;0.90;;;28.30;1.00;;;;;;5070938;28;20456;-54
2022/08/07 09:32:56;;;;;;;1.13;0.93;;;27.70;1.00;;;;;;5069492;28;20532;-53
2022/08/07 09:35:55;;;;;;;1.67;1.00;;;26.80;1.00;;;;;;5052934;28;20436;-55
2022/08/07 09:38:35;;;;;;;1.00;0.87;;;26.60;1.00;;;;;;5086721;28;20448;-55
2022/08/07 09:41:37;;;;;;;3.97;1.00;;;26.90;1.00;;;;;;5086397;28;20540;-55
2022/08/07 09:44:13;;;;;;;1.67;0.80;;;27.20;1.00;;;;;;5083142;28;20436;-54
2022/08/07 09:47:02;;;;;;;1.00;0.90;;;27.40;1.00;;;;;;5087907;28;20963;-53
2022/08/07 09:49:41;;;;;;;2.70;0.80;;;27.60;1.00;;;;;;5087935;28;20496;-54
2022/08/07 09:52:20;;;;;;;1.30;0.97;;;27.60;1.00;;;;;;5085038;28;20452;-55
2022/08/07 09:55:03;;;;;;;1.30;0.70;;;27.10;1.00;;;;;;5086151;28;20436;-56
2022/08/07 09:58:01;;;;;;;1.20;0.90;;;26.70;1.00;;;;;;5084910;28;20966;-58
2022/08/07 10:00:37;;;;;;;1.67;0.80;;;26.80;1.00;;;;;;5086971;28;20471;-54
2022/08/07 10:03:29;;;;;;;2.70;0.80;;;26.70;1.00;;;;;;5087516;28;20436;-56
2022/08/07 10:06:23;;;;;;;1.93;1.00;;;26.90;1.00;;;;;;5091389;28;20957;-56
2022/08/07 10:09:25;;;;;;;1.23;0.80;;;27.50;1.00;;;;;;5090085;28;20479;-56
2022/08/07 10:12:06;;;;;;;1.27;1.00;;;27.90;1.00;;;;;;5091225;28;20524;-56
2022/08/07 10:15:07;;;;;;;1.27;0.90;;;28.00;1.00;;;;;;5091865;28;20494;-56
2022/08/07 10:17:47;;;;;;;0.80;0.70;;;27.70;1.00;;;;;;5090841;28;20475;-55
2022/08/07 10:20:30;;;;;;;1.80;1.00;;;27.80;1.00;;;;;;5090550;28;20797;-57
2022/08/07 10:23:23;;;;;;;1.30;0.90;;;28.00;1.00;;;;;;5091208;28;20536;-54
2022/08/07 10:26:29;;;;;;;0.70;0.50;;;28.40;1.00;;;;;;5090909;28;20480;-54
2022/08/07 10:29:16;;;;;;;1.10;0.80;;;28.60;1.00;;;;;;5091777;28;20465;-54
2022/08/07 10:32:07;;;;;;;1.57;0.60;;;28.50;1.00;;;;;;5089046;28;20437;-56
2022/08/07 10:34:52;;;;;;;2.10;0.97;;;28.00;1.00;;;;;;5091375;28;21133;-57
2022/08/07 10:37:38;;;;;;;1.30;1.13;;;27.60;1.00;;;;;;5092103;28;20461;-54
2022/08/07 10:40:17;;;;;;;1.20;1.10;;;27.50;1.00;;;;;;5088413;28;20444;-55
2022/08/07 10:42:57;;;;;;;1.57;0.90;;;27.50;1.00;;;;;;5090744;28;20447;-55
2022/08/07 10:45:29;;;;;;;2.40;0.80;;;27.80;1.00;;;;;;5091183;28;20448;-55
2022/08/07 10:48:29;;;;;;;1.50;0.80;;;28.00;1.00;;;;;;5089864;28;20460;-54
2022/08/07 10:51:05;;;;;;;0.90;0.70;;;28.10;1.00;;;;;;5087669;28;20455;-53
2022/08/07 10:53:37;;;;;;;1.30;0.70;;;27.80;1.00;;;;;;5088313;28;20445;-55
2022/08/07 10:56:20;;;;;;;1.83;0.80;;;27.80;1.00;;;;;;5087263;28;20416;-55
2022/08/07 10:59:11;;;;;;;3.10;0.90;;;27.60;1.00;;;;;;5089677;28;20448;-54
2022/08/07 11:02:08;;;;;;;1.20;0.83;;;27.50;1.00;;;;;;5088430;28;20779;-55
2022/08/07 11:04:39;;;;;;;1.23;0.87;;;27.70;1.00;;;;;;5087782;28;20456;-54
2022/08/07 11:07:13;;;;;;;1.53;0.83;;;27.70;1.00;;;;;;5089518;28;20457;-55
2022/08/07 11:09:46;;;;;;;1.47;0.83;;;27.80;1.00;;;;;;5088676;28;20472;-54
2022/08/07 11:12:25;;;;;;;4.13;2.47;;;27.90;1.00;;;;;;5087597;28;20453;-55
2022/08/07 11:15:01;;;;;;;6.37;5.13;;;27.70;1.00;;;;;;5090125;28;20509;-55
2022/08/07 11:17:40;;;;;;;1.43;0.77;;;27.30;1.00;;;;;;5090817;28;20453;-53
2022/08/07 11:20:12;;;;;;;1.60;0.50;;;27.20;1.00;;;;;;5091079;28;20775;-55
2022/08/07 11:22:47;;;;;;;2.73;1.67;;;27.40;1.00;;;;;;5091329;28;20907;-54
2022/08/07 11:25:22;;;;;;;1.70;1.10;;;27.50;1.00;;;;;;5088311;28;20542;-56
2022/08/07 11:28:11;;;;;;;2.90;1.00;;;27.40;1.00;;;;;;5090109;28;20444;-54
2022/08/07 11:31:14;;;;;;;1.40;0.90;;;27.50;1.00;;;;;;5073961;28;20460;-54
2022/08/07 11:33:52;;;;;;;2.13;1.10;;;27.60;1.00;;;;;;5047687;28;20946;-53
2022/08/07 11:37:00;;;;;;;2.17;1.00;;;27.60;1.00;;;;;;5090380;28;20975;-53
2022/08/07 11:39:58;;;;;;;1.10;0.83;;;27.30;1.00;;;;;;5071753;28;20500;-53
2022/08/07 11:42:35;;;;;;;1.70;1.00;;;27.00;1.00;;;;;;5050921;28;20975;-54
2022/08/07 11:45:28;;;;;;;2.40;0.87;;;27.00;1.00;;;;;;5090255;28;21010;-56
2022/08/07 11:48:23;;;;;;;1.77;1.03;;;26.90;1.00;;;;;;5084101;28;20476;-55
2022/08/07 11:51:12;;;;;;;2.27;0.80;;;27.20;1.00;;;;;;5090602;28;20929;-54
2022/08/07 11:54:10;;;;;;;2.30;0.90;;;27.40;1.00;;;;;;5089995;28;20481;-55
2022/08/07 11:56:54;;;;;;;1.60;0.93;;;27.60;1.00;;;;;;5090601;28;20413;-54
2022/08/07 11:59:46;;;;;;;1.20;0.80;;;27.60;1.00;;;;;;5089872;28;20522;-55
2022/08/07 12:02:32;;;;;;;1.70;1.30;;;27.20;1.00;;;;;;5071405;28;20487;-53
2022/08/07 12:05:21;;;;;;;2.50;1.20;;;27.00;1.00;;;;;;5086408;28;20440;-54
2022/08/07 12:08:06;;;;;;;1.40;1.03;;;26.70;1.00;;;;;;5086819;28;20809;-53
2022/08/07 12:10:51;;;;;;;1.30;0.80;;;26.40;1.00;;;;;;5088348;28;20456;-56
2022/08/07 12:13:31;;;;;;;2.50;1.00;;;26.20;1.00;;;;;;5090140;28;20450;-54
2022/08/07 12:16:10;;;;;;;2.50;1.00;;;26.50;1.00;;;;;;5089534;28;20536;-54
2022/08/07 12:18:50;;;;;;;1.37;0.90;;;26.70;1.00;;;;;;5089596;28;20455;-53
2022/08/07 12:21:24;;;;;;;2.80;0.77;;;27.10;1.00;;;;;;5089199;28;20937;-56
2022/08/07 12:23:58;;;;;;;3.07;1.00;;;27.20;1.00;;;;;;5089562;28;20521;-55
2022/08/07 12:26:42;;;;;;;1.37;1.10;;;27.20;1.00;;;;;;5088738;28;20448;-55
2022/08/07 12:29:45;;;;;;;1.63;1.00;;;27.30;1.00;;;;;;5089109;28;20974;-55
2022/08/07 12:32:26;;;;;;;1.67;0.80;;;27.30;1.00;;;;;;5089995;28;20433;-56
2022/08/07 12:34:52;;;;;;;2.07;0.77;;;27.40;1.00;;;;;;5088799;28;20440;-54
2022/08/07 12:37:19;;;;;;;3.63;0.87;;;27.60;1.00;;;;;;5089573;28;20551;-55
2022/08/07 12:39:49;;;;;;;1.33;1.00;;;27.80;1.00;;;;;;5086565;28;20444;-54
2022/08/07 12:42:18;;;;;;;1.30;0.90;;;27.80;1.00;;;;;;5088827;28;20480;-54
2022/08/07 12:44:46;;;;;;;1.03;0.90;;;27.80;1.00;;;;;;5089377;28;20471;-55
2022/08/07 12:47:21;;;;;;;4.70;0.93;;;27.90;1.00;;;;;;5085511;28;20874;-55
2022/08/07 12:49:59;;;;;;;0.90;0.80;;;28.10;1.00;;;;;;5088126;28;20480;-55
2022/08/07 12:52:48;;;;;;;1.27;0.77;;;27.90;1.00;;;;;;5088822;28;20488;-55
2022/08/07 12:55:36;;;;;;;2.10;1.23;;;27.80;1.00;;;;;;5089772;28;20478;-53
2022/08/07 12:58:05;;;;;;;1.90;1.00;;;27.60;1.00;;;;;;5088359;28;20925;-55
2022/08/07 13:00:53;;;;;;;1.20;1.00;;;27.60;1.00;;;;;;5088292;28;20444;-52
2022/08/07 13:03:37;;;;;;;4.70;1.13;;;27.50;1.00;;;;;;5088183;28;20432;-54
2022/08/07 13:06:28;;;;;;;1.10;1.00;;;27.30;1.00;;;;;;5088592;28;20457;-53
2022/08/07 13:09:30;;;;;;;2.33;1.30;;;27.30;1.00;;;;;;5087392;28;20472;-56
2022/08/07 13:12:27;;;;;;;2.03;0.90;;;27.50;1.00;;;;;;5087785;28;20444;-54
2022/08/07 13:15:24;;;;;;;1.97;0.87;;;27.30;1.00;;;;;;5088940;28;20980;-55
2022/08/07 13:18:02;;;;;;;2.30;1.13;;;27.30;1.00;;;;;;5087911;28;20436;-54
2022/08/07 13:20:51;;;;;;;1.23;0.83;;;27.50;1.00;;;;;;5088792;28;20882;-56
2022/08/07 13:23:25;;;;;;;2.63;0.90;;;27.30;1.00;;;;;;5087819;28;20817;-53
2022/08/07 13:26:20;;;;;;;1.20;0.90;;;27.00;1.00;;;;;;5089051;28;20506;-54
2022/08/07 13:29:17;;;;;;;2.60;1.07;;;26.90;1.00;;;;;;5078266;28;20479;-55
2022/08/07 13:31:49;;;;;;;4.80;1.07;;;27.00;1.00;;;;;;5061090;28;20808;-54
2022/08/07 13:34:53;;;;;;;1.50;1.00;;;27.10;1.00;;;;;;5088432;28;21030;-55
2022/08/07 13:37:37;;;;;;;2.20;1.10;;;27.10;1.00;;;;;;5089247;28;20495;-53
2022/08/07 13:40:08;;;;;;;1.77;1.00;;;27.00;1.00;;;;;;5091130;28;20467;-52